sensor_id;sensor_type;location;lat;lon;timestamp;pressure;altitude;pressure_sealevel;temperature;humidity
71361;BME280;59166;48.908;1.870;2022-11-11T00:02:45;101680.47;;;9.60;100.00
71361;BME280;59166;48.908;1.870;2022-11-11T00:07:46;101686.16;;;9.52;100.00
71361;BME280;59166;48.908;1.870;2022-11-11T00:12:48;101694.91;;;9.47;100.00
71361;BME280;59166;48.908;1.870;2022-11-11T00:17:49;101706.69;;;9.53;100.00
71361;BME280;59166;48.908;1.870;2022-11-11T00:22:50;101702.06;;;9.35;100.00
71361;BME280;59166;48.908;1.870;2022-11-11T00:27:52;101706.19;;;9.38;100.00
71361;BME280;59166;48.908;1.870;2022-11-11T00:32:53;101710.16;;;9.35;100.00
71361;BME280;59166;48.908;1.870;2022-11-11T00:37:54;101716.69;;;9.46;100.00
71361;BME280;59166;48.908;1.870;2022-11-11T00:43:07;101727.47;;;9.46;100.00
71361;BME280;59166;48.908;1.870;2022-11-11T00:48:08;101715.22;;;9.50;100.00
71361;BME280;59166;48.908;1.870;2022-11-11T00:53:11;101724.91;;;9.57;100.00
71361;BME280;59166;48.908;1.870;2022-11-11T00:58:13;101732.81;;;9.59;100.00
71361;BME280;59166;48.908;1.870;2022-11-11T01:03:17;101747.91;;;9.60;100.00
71361;BME280;59166;48.908;1.870;2022-11-11T01:08:18;101741.69;;;9.59;100.00
71361;BME280;59166;48.908;1.870;2022-11-11T01:13:22;101746.00;;;9.67;100.00
71361;BME280;59166;48.908;1.870;2022-11-11T01:18:24;101738.53;;;9.69;100.00
71361;BME280;59166;48.908;1.870;2022-11-11T01:23:26;101736.88;;;9.68;100.00
71361;BME280;59166;48.908;1.870;2022-11-11T01:28:29;101736.94;;;9.61;100.00
71361;BME280;59166;48.908;1.870;2022-11-11T01:33:30;101741.44;;;9.67;100.00
71361;BME280;59166;48.908;1.870;2022-11-11T01:38:31;101752.69;;;9.64;100.00
71361;BME280;59166;48.908;1.870;2022-11-11T01:43:36;101739.38;;;9.63;100.00
71361;BME280;59166;48.908;1.870;2022-11-11T01:48:40;101727.81;;;9.56;100.00
71361;BME280;59166;48.908;1.870;2022-11-11T01:53:43;101728.25;;;9.53;100.00
71361;BME280;59166;48.908;1.870;2022-11-11T01:58:45;101735.41;;;9.41;100.00
71361;BME280;59166;48.908;1.870;2022-11-11T02:03:48;101720.25;;;9.40;100.00
71361;BME280;59166;48.908;1.870;2022-11-11T02:08:51;101726.72;;;9.39;100.00
71361;BME280;59166;48.908;1.870;2022-11-11T02:13:53;101720.88;;;9.42;100.00
71361;BME280;59166;48.908;1.870;2022-11-11T02:18:54;101727.13;;;9.36;100.00
71361;BME280;59166;48.908;1.870;2022-11-11T02:24:02;101733.75;;;9.40;100.00
71361;BME280;59166;48.908;1.870;2022-11-11T02:29:13;101730.63;;;9.43;100.00
71361;BME280;59166;48.908;1.870;2022-11-11T02:34:16;101724.44;;;9.36;100.00
71361;BME280;59166;48.908;1.870;2022-11-11T02:39:19;101715.75;;;9.33;100.00
71361;BME280;59166;48.908;1.870;2022-11-11T02:44:19;101719.75;;;9.24;100.00
71361;BME280;59166;48.908;1.870;2022-11-11T02:49:20;101711.03;;;9.22;100.00
71361;BME280;59166;48.908;1.870;2022-11-11T02:54:23;101717.66;;;9.26;100.00
71361;BME280;59166;48.908;1.870;2022-11-11T02:59:24;101711.88;;;9.23;100.00
71361;BME280;59166;48.908;1.870;2022-11-11T03:04:24;101713.13;;;9.20;100.00
71361;BME280;59166;48.908;1.870;2022-11-11T03:09:27;101706.31;;;9.18;100.00
71361;BME280;59166;48.908;1.870;2022-11-11T03:14:28;101707.56;;;9.15;100.00
71361;BME280;59166;48.908;1.870;2022-11-11T03:19:28;101710.19;;;9.22;100.00
71361;BME280;59166;48.908;1.870;2022-11-11T03:24:31;101710.66;;;9.19;100.00
71361;BME280;59166;48.908;1.870;2022-11-11T03:29:32;101704.84;;;9.15;100.00
71361;BME280;59166;48.908;1.870;2022-11-11T03:34:33;101709.41;;;9.21;100.00
71361;BME280;59166;48.908;1.870;2022-11-11T03:39:35;101711.91;;;9.16;100.00
71361;BME280;59166;48.908;1.870;2022-11-11T03:44:36;101707.34;;;9.17;100.00
71361;BME280;59166;48.908;1.870;2022-11-11T03:49:37;101708.00;;;9.12;100.00
71361;BME280;59166;48.908;1.870;2022-11-11T03:54:39;101702.84;;;9.11;100.00
71361;BME280;59166;48.908;1.870;2022-11-11T03:59:40;101716.88;;;9.19;100.00
71361;BME280;59166;48.908;1.870;2022-11-11T04:04:41;101719.56;;;9.19;100.00
71361;BME280;59166;48.908;1.870;2022-11-11T04:09:43;101715.47;;;9.10;100.00
71361;BME280;59166;48.908;1.870;2022-11-11T04:14:44;101712.81;;;9.04;100.00
71361;BME280;59166;48.908;1.870;2022-11-11T04:19:45;101710.72;;;9.06;100.00
71361;BME280;59166;48.908;1.870;2022-11-11T04:24:47;101714.25;;;9.06;100.00
71361;BME280;59166;48.908;1.870;2022-11-11T04:29:48;101719.47;;;9.01;100.00
71361;BME280;59166;48.908;1.870;2022-11-11T04:34:50;101722.34;;;9.06;100.00
71361;BME280;59166;48.908;1.870;2022-11-11T04:39:53;101718.66;;;9.01;100.00
71361;BME280;59166;48.908;1.870;2022-11-11T04:44:54;101720.31;;;8.95;100.00
71361;BME280;59166;48.908;1.870;2022-11-11T04:49:55;101715.78;;;8.89;100.00
71361;BME280;59166;48.908;1.870;2022-11-11T04:54:58;101710.59;;;8.88;100.00
71361;BME280;59166;48.908;1.870;2022-11-11T04:59:59;101715.97;;;8.88;100.00
71361;BME280;59166;48.908;1.870;2022-11-11T05:05:00;101720.16;;;8.90;100.00
71361;BME280;59166;48.908;1.870;2022-11-11T05:10:02;101712.25;;;8.89;100.00
71361;BME280;59166;48.908;1.870;2022-11-11T05:15:04;101714.56;;;8.78;100.00
71361;BME280;59166;48.908;1.870;2022-11-11T05:20:07;101705.25;;;8.81;100.00
71361;BME280;59166;48.908;1.870;2022-11-11T05:25:10;101713.56;;;8.73;100.00
71361;BME280;59166;48.908;1.870;2022-11-11T05:30:13;101707.34;;;8.72;100.00
71361;BME280;59166;48.908;1.870;2022-11-11T05:35:15;101693.84;;;8.79;100.00
71361;BME280;59166;48.908;1.870;2022-11-11T05:40:17;101700.69;;;8.75;100.00
71361;BME280;59166;48.908;1.870;2022-11-11T05:45:18;101699.88;;;8.68;100.00
71361;BME280;59166;48.908;1.870;2022-11-11T05:50:19;101703.03;;;8.58;100.00
71361;BME280;59166;48.908;1.870;2022-11-11T05:55:21;101705.97;;;8.50;100.00
71361;BME280;59166;48.908;1.870;2022-11-11T06:00:22;101705.78;;;8.45;100.00
71361;BME280;59166;48.908;1.870;2022-11-11T06:05:23;101701.81;;;8.48;100.00
71361;BME280;59166;48.908;1.870;2022-11-11T06:10:25;101696.25;;;8.49;100.00
71361;BME280;59166;48.908;1.870;2022-11-11T06:15:26;101717.34;;;8.59;100.00
71361;BME280;59166;48.908;1.870;2022-11-11T06:20:27;101722.31;;;8.55;100.00
71361;BME280;59166;48.908;1.870;2022-11-11T06:25:31;101721.28;;;8.56;100.00
71361;BME280;59166;48.908;1.870;2022-11-11T06:30:32;101734.13;;;8.54;100.00
71361;BME280;59166;48.908;1.870;2022-11-11T06:35:33;101733.31;;;8.54;100.00
71361;BME280;59166;48.908;1.870;2022-11-11T06:40:35;101745.31;;;8.58;100.00
71361;BME280;59166;48.908;1.870;2022-11-11T06:45:37;101749.66;;;8.59;100.00
71361;BME280;59166;48.908;1.870;2022-11-11T06:50:37;101750.50;;;8.53;100.00
71361;BME280;59166;48.908;1.870;2022-11-11T06:55:40;101752.78;;;8.56;100.00
71361;BME280;59166;48.908;1.870;2022-11-11T07:00:41;101755.03;;;8.59;100.00
71361;BME280;59166;48.908;1.870;2022-11-11T07:05:43;101753.19;;;8.59;100.00
71361;BME280;59166;48.908;1.870;2022-11-11T07:10:46;101759.81;;;8.63;100.00
71361;BME280;59166;48.908;1.870;2022-11-11T07:15:48;101759.78;;;8.70;100.00
71361;BME280;59166;48.908;1.870;2022-11-11T07:20:49;101765.97;;;8.77;100.00
71361;BME280;59166;48.908;1.870;2022-11-11T07:25:51;101762.03;;;8.79;100.00
71361;BME280;59166;48.908;1.870;2022-11-11T07:30:52;101765.31;;;8.81;100.00
71361;BME280;59166;48.908;1.870;2022-11-11T07:35:53;101757.25;;;8.88;100.00
71361;BME280;59166;48.908;1.870;2022-11-11T07:40:55;101758.47;;;8.92;100.00
71361;BME280;59166;48.908;1.870;2022-11-11T07:45:56;101750.75;;;9.02;100.00
71361;BME280;59166;48.908;1.870;2022-11-11T07:50:57;101748.84;;;9.09;100.00
71361;BME280;59166;48.908;1.870;2022-11-11T07:55:59;101751.94;;;9.13;100.00
71361;BME280;59166;48.908;1.870;2022-11-11T08:01:00;101755.28;;;9.15;100.00
71361;BME280;59166;48.908;1.870;2022-11-11T08:06:01;101746.53;;;9.19;100.00
71361;BME280;59166;48.908;1.870;2022-11-11T08:11:04;101745.88;;;9.24;100.00
71361;BME280;59166;48.908;1.870;2022-11-11T08:16:05;101746.88;;;9.29;100.00
71361;BME280;59166;48.908;1.870;2022-11-11T08:21:07;101741.41;;;9.43;100.00
71361;BME280;59166;48.908;1.870;2022-11-11T08:26:09;101748.66;;;9.49;99.12
71361;BME280;59166;48.908;1.870;2022-11-11T08:31:10;101750.72;;;9.47;98.83
71361;BME280;59166;48.908;1.870;2022-11-11T08:36:11;101754.44;;;9.46;98.69
71361;BME280;59166;48.908;1.870;2022-11-11T08:41:13;101762.97;;;9.43;99.07
71361;BME280;59166;48.908;1.870;2022-11-11T08:46:14;101772.72;;;9.44;99.27
71361;BME280;59166;48.908;1.870;2022-11-11T08:51:15;101782.28;;;9.40;99.61
71361;BME280;59166;48.908;1.870;2022-11-11T08:56:18;101770.47;;;9.41;100.00
71361;BME280;59166;48.908;1.870;2022-11-11T09:01:19;101772.94;;;9.42;100.00
71361;BME280;59166;48.908;1.870;2022-11-11T09:06:22;101777.25;;;9.50;100.00
71361;BME280;59166;48.908;1.870;2022-11-11T09:11:25;101771.31;;;9.66;100.00
71361;BME280;59166;48.908;1.870;2022-11-11T09:16:26;101767.59;;;9.67;98.72
71361;BME280;59166;48.908;1.870;2022-11-11T09:21:27;101779.81;;;9.69;99.46
71361;BME280;59166;48.908;1.870;2022-11-11T09:26:30;101787.06;;;9.75;98.24
71361;BME280;59166;48.908;1.870;2022-11-11T09:31:34;101789.09;;;9.80;97.99
71361;BME280;59166;48.908;1.870;2022-11-11T09:36:38;101795.09;;;9.82;98.67
71361;BME280;59166;48.908;1.870;2022-11-11T09:41:57;101799.09;;;9.73;98.35
71361;BME280;59166;48.908;1.870;2022-11-11T09:47:09;101803.59;;;9.86;97.89
71361;BME280;59166;48.908;1.870;2022-11-11T09:52:27;101805.84;;;9.89;97.36
71361;BME280;59166;48.908;1.870;2022-11-11T10:02:52;101797.84;;;10.00;98.72
71361;BME280;59166;48.908;1.870;2022-11-11T10:07:57;101794.31;;;10.00;98.09
71361;BME280;59166;48.908;1.870;2022-11-11T10:13:02;101804.03;;;10.07;98.46
71361;BME280;59166;48.908;1.870;2022-11-11T10:18:17;101797.16;;;10.11;97.97
71361;BME280;59166;48.908;1.870;2022-11-11T10:23:28;101805.44;;;10.16;96.86
71361;BME280;59166;48.908;1.870;2022-11-11T10:28:38;101800.16;;;10.21;97.27
71361;BME280;59166;48.908;1.870;2022-11-11T10:33:47;101808.97;;;10.35;96.78
71361;BME280;59166;48.908;1.870;2022-11-11T10:38:52;101801.66;;;10.42;96.79
71361;BME280;59166;48.908;1.870;2022-11-11T10:44:18;101806.00;;;10.43;96.86
71361;BME280;59166;48.908;1.870;2022-11-11T10:49:21;101807.88;;;10.43;96.58
71361;BME280;59166;48.908;1.870;2022-11-11T10:54:28;101803.75;;;10.58;96.02
71361;BME280;59166;48.908;1.870;2022-11-11T10:59:39;101812.84;;;10.64;95.93
71361;BME280;59166;48.908;1.870;2022-11-11T11:04:45;101813.81;;;10.76;95.58
71361;BME280;59166;48.908;1.870;2022-11-11T11:10:12;101799.69;;;10.92;94.12
71361;BME280;59166;48.908;1.870;2022-11-11T11:15:17;101799.91;;;10.91;93.23
71361;BME280;59166;48.908;1.870;2022-11-11T11:20:31;101791.28;;;11.00;94.25
71361;BME280;59166;48.908;1.870;2022-11-11T11:25:32;101787.34;;;11.14;92.72
71361;BME280;59166;48.908;1.870;2022-11-11T11:30:34;101784.66;;;11.14;92.69
71361;BME280;59166;48.908;1.870;2022-11-11T11:35:37;101782.34;;;11.29;92.42
71361;BME280;59166;48.908;1.870;2022-11-11T11:40:49;101782.78;;;11.45;92.55
71361;BME280;59166;48.908;1.870;2022-11-11T11:45:56;101779.25;;;11.56;91.46
71361;BME280;59166;48.908;1.870;2022-11-11T11:51:05;101777.53;;;11.61;91.01
71361;BME280;59166;48.908;1.870;2022-11-11T11:56:17;101778.63;;;11.83;89.57
71361;BME280;59166;48.908;1.870;2022-11-11T12:01:25;101778.88;;;11.82;89.55
71361;BME280;59166;48.908;1.870;2022-11-11T12:06:54;101769.81;;;11.88;88.94
71361;BME280;59166;48.908;1.870;2022-11-11T12:12:02;101760.97;;;11.81;89.26
71361;BME280;59166;48.908;1.870;2022-11-11T12:17:18;101772.38;;;11.83;88.84
71361;BME280;59166;48.908;1.870;2022-11-11T12:22:35;101759.47;;;11.85;88.53
71361;BME280;59166;48.908;1.870;2022-11-11T12:27:51;101750.03;;;11.87;88.75
71361;BME280;59166;48.908;1.870;2022-11-11T12:38:49;101735.56;;;11.82;88.71
71361;BME280;59166;48.908;1.870;2022-11-11T12:43:55;101719.69;;;12.09;86.62
71361;BME280;59166;48.908;1.870;2022-11-11T12:49:04;101722.59;;;11.96;88.69
71361;BME280;59166;48.908;1.870;2022-11-11T12:54:18;101710.38;;;11.93;88.61
71361;BME280;59166;48.908;1.870;2022-11-11T12:59:31;101710.59;;;12.03;88.38
71361;BME280;59166;48.908;1.870;2022-11-11T13:04:47;101710.94;;;12.07;87.63
71361;BME280;59166;48.908;1.870;2022-11-11T13:10:12;101709.78;;;12.14;87.93
71361;BME280;59166;48.908;1.870;2022-11-11T13:15:21;101692.34;;;12.22;88.22
71361;BME280;59166;48.908;1.870;2022-11-11T13:20:34;101692.81;;;12.30;87.89
71361;BME280;59166;48.908;1.870;2022-11-11T13:25:44;101687.84;;;12.27;87.93
71361;BME280;59166;48.908;1.870;2022-11-11T13:30:53;101685.06;;;12.22;87.15
71361;BME280;59166;48.908;1.870;2022-11-11T13:35:59;101683.75;;;12.25;87.37
71361;BME280;59166;48.908;1.870;2022-11-11T13:41:04;101679.16;;;12.14;88.16
71361;BME280;59166;48.908;1.870;2022-11-11T13:51:56;101681.03;;;12.25;88.45
71361;BME280;59166;48.908;1.870;2022-11-11T13:57:05;101673.88;;;12.30;87.65
71361;BME280;59166;48.908;1.870;2022-11-11T14:02:26;101662.16;;;12.30;87.17
71361;BME280;59166;48.908;1.870;2022-11-11T14:07:49;101655.91;;;12.29;87.02
71361;BME280;59166;48.908;1.870;2022-11-11T14:12:52;101655.91;;;12.29;87.12
71361;BME280;59166;48.908;1.870;2022-11-11T14:17:53;101650.19;;;12.26;87.32
71361;BME280;59166;48.908;1.870;2022-11-11T14:22:54;101648.53;;;12.25;87.63
71361;BME280;59166;48.908;1.870;2022-11-11T14:27:56;101647.13;;;12.22;87.84
71361;BME280;59166;48.908;1.870;2022-11-11T14:33:00;101648.75;;;12.23;87.40
71361;BME280;59166;48.908;1.870;2022-11-11T14:38:20;101642.28;;;12.24;88.87
71361;BME280;59166;48.908;1.870;2022-11-11T14:43:41;101639.69;;;12.18;87.79
71361;BME280;59166;48.908;1.870;2022-11-11T14:48:56;101634.63;;;12.21;87.00
71361;BME280;59166;48.908;1.870;2022-11-11T14:53:57;101632.41;;;12.18;87.84
71361;BME280;59166;48.908;1.870;2022-11-11T14:59:05;101621.56;;;12.18;88.27
71361;BME280;59166;48.908;1.870;2022-11-11T15:04:08;101623.44;;;12.18;88.54
71361;BME280;59166;48.908;1.870;2022-11-11T15:09:29;101625.31;;;12.17;88.25
71361;BME280;59166;48.908;1.870;2022-11-11T15:14:41;101623.66;;;12.16;88.63
71361;BME280;59166;48.908;1.870;2022-11-11T15:19:54;101628.25;;;12.16;89.06
71361;BME280;59166;48.908;1.870;2022-11-11T15:25:11;101614.97;;;12.14;88.98
71361;BME280;59166;48.908;1.870;2022-11-11T15:30:16;101617.09;;;12.12;88.69
71361;BME280;59166;48.908;1.870;2022-11-11T15:35:32;101611.56;;;12.07;88.53
71361;BME280;59166;48.908;1.870;2022-11-11T15:40:43;101618.88;;;12.07;89.16
71361;BME280;59166;48.908;1.870;2022-11-11T15:46:05;101608.97;;;12.01;89.94
71361;BME280;59166;48.908;1.870;2022-11-11T15:51:16;101611.81;;;11.94;89.86
71361;BME280;59166;48.908;1.870;2022-11-11T15:56:27;101613.81;;;11.87;90.37
71361;BME280;59166;48.908;1.870;2022-11-11T16:01:30;101629.03;;;11.88;91.00
71361;BME280;59166;48.908;1.870;2022-11-11T16:06:34;101625.97;;;11.84;90.90
71361;BME280;59166;48.908;1.870;2022-11-11T16:11:38;101628.19;;;11.76;91.29
71361;BME280;59166;48.908;1.870;2022-11-11T16:16:40;101624.19;;;11.67;91.81
71361;BME280;59166;48.908;1.870;2022-11-11T16:21:45;101622.06;;;11.46;92.49
71361;BME280;59166;48.908;1.870;2022-11-11T16:26:47;101626.75;;;11.38;92.76
71361;BME280;59166;48.908;1.870;2022-11-11T16:31:50;101637.00;;;11.36;92.41
71361;BME280;59166;48.908;1.870;2022-11-11T16:36:57;101635.44;;;11.29;92.34
71361;BME280;59166;48.908;1.870;2022-11-11T16:41:59;101642.84;;;11.22;92.80
71361;BME280;59166;48.908;1.870;2022-11-11T16:47:03;101642.81;;;11.10;93.14
71361;BME280;59166;48.908;1.870;2022-11-11T16:52:11;101646.56;;;11.09;93.06
71361;BME280;59166;48.908;1.870;2022-11-11T16:57:15;101651.72;;;10.99;93.37
71361;BME280;59166;48.908;1.870;2022-11-11T17:02:20;101653.84;;;10.97;93.44
71361;BME280;59166;48.908;1.870;2022-11-11T17:07:31;101659.72;;;10.94;93.73
71361;BME280;59166;48.908;1.870;2022-11-11T17:12:33;101655.19;;;10.88;94.16
71361;BME280;59166;48.908;1.870;2022-11-11T17:17:36;101648.75;;;10.89;93.83
71361;BME280;59166;48.908;1.870;2022-11-11T17:22:53;101662.72;;;10.86;94.27
71361;BME280;59166;48.908;1.870;2022-11-11T17:27:54;101661.66;;;10.87;94.30
71361;BME280;59166;48.908;1.870;2022-11-11T17:32:57;101665.41;;;10.86;94.09
71361;BME280;59166;48.908;1.870;2022-11-11T17:37:58;101670.00;;;10.85;93.83
71361;BME280;59166;48.908;1.870;2022-11-11T17:42:58;101668.66;;;10.76;94.23
71361;BME280;59166;48.908;1.870;2022-11-11T17:48:01;101669.31;;;10.72;94.79
71361;BME280;59166;48.908;1.870;2022-11-11T17:53:02;101683.66;;;10.72;94.90
71361;BME280;59166;48.908;1.870;2022-11-11T17:58:02;101668.94;;;10.68;95.50
71361;BME280;59166;48.908;1.870;2022-11-11T18:03:05;101671.44;;;10.70;95.70
71361;BME280;59166;48.908;1.870;2022-11-11T18:08:05;101683.50;;;10.67;96.02
71361;BME280;59166;48.908;1.870;2022-11-11T18:13:06;101694.94;;;10.69;96.67
71361;BME280;59166;48.908;1.870;2022-11-11T18:18:08;101694.31;;;10.67;96.53
71361;BME280;59166;48.908;1.870;2022-11-11T18:23:09;101687.72;;;10.63;96.99
71361;BME280;59166;48.908;1.870;2022-11-11T18:28:10;101690.81;;;10.67;96.96
71361;BME280;59166;48.908;1.870;2022-11-11T18:33:12;101711.81;;;10.65;97.03
71361;BME280;59166;48.908;1.870;2022-11-11T18:38:13;101700.88;;;10.60;97.08
71361;BME280;59166;48.908;1.870;2022-11-11T18:43:14;101703.28;;;10.50;98.29
71361;BME280;59166;48.908;1.870;2022-11-11T18:48:16;101712.56;;;10.54;98.42
71361;BME280;59166;48.908;1.870;2022-11-11T18:53:17;101719.25;;;10.51;99.10
71361;BME280;59166;48.908;1.870;2022-11-11T18:58:17;101722.78;;;10.52;99.34
71361;BME280;59166;48.908;1.870;2022-11-11T19:03:20;101717.38;;;10.52;99.40
71361;BME280;59166;48.908;1.870;2022-11-11T19:08:20;101722.63;;;10.47;100.00
71361;BME280;59166;48.908;1.870;2022-11-11T19:13:21;101713.25;;;10.49;100.00
71361;BME280;59166;48.908;1.870;2022-11-11T19:18:24;101709.06;;;10.53;100.00
71361;BME280;59166;48.908;1.870;2022-11-11T19:23:24;101711.75;;;10.53;100.00
71361;BME280;59166;48.908;1.870;2022-11-11T19:28:25;101715.88;;;10.56;100.00
71361;BME280;59166;48.908;1.870;2022-11-11T19:33:28;101722.31;;;10.55;100.00
71361;BME280;59166;48.908;1.870;2022-11-11T19:38:29;101719.88;;;10.53;100.00
71361;BME280;59166;48.908;1.870;2022-11-11T19:43:29;101709.06;;;10.53;100.00
71361;BME280;59166;48.908;1.870;2022-11-11T19:48:32;101719.47;;;10.50;100.00
71361;BME280;59166;48.908;1.870;2022-11-11T19:53:33;101714.66;;;10.52;100.00
71361;BME280;59166;48.908;1.870;2022-11-11T19:58:35;101715.72;;;10.51;100.00
71361;BME280;59166;48.908;1.870;2022-11-11T20:03:38;101714.28;;;10.48;100.00
71361;BME280;59166;48.908;1.870;2022-11-11T20:08:39;101723.69;;;10.46;100.00
71361;BME280;59166;48.908;1.870;2022-11-11T20:13:40;101725.38;;;10.40;100.00
71361;BME280;59166;48.908;1.870;2022-11-11T20:18:42;101737.09;;;10.34;100.00
71361;BME280;59166;48.908;1.870;2022-11-11T20:23:43;101733.81;;;10.32;100.00
71361;BME280;59166;48.908;1.870;2022-11-11T20:28:44;101738.16;;;10.33;100.00
71361;BME280;59166;48.908;1.870;2022-11-11T20:33:48;101732.38;;;10.29;100.00
71361;BME280;59166;48.908;1.870;2022-11-11T20:38:49;101733.19;;;10.30;100.00
71361;BME280;59166;48.908;1.870;2022-11-11T20:43:50;101736.72;;;10.30;100.00
71361;BME280;59166;48.908;1.870;2022-11-11T20:48:53;101753.75;;;10.31;100.00
71361;BME280;59166;48.908;1.870;2022-11-11T20:53:54;101744.69;;;10.25;100.00
71361;BME280;59166;48.908;1.870;2022-11-11T20:58:54;101749.91;;;10.20;100.00
71361;BME280;59166;48.908;1.870;2022-11-11T21:03:58;101738.97;;;10.15;100.00
71361;BME280;59166;48.908;1.870;2022-11-11T21:09:01;101733.75;;;10.14;100.00
71361;BME280;59166;48.908;1.870;2022-11-11T21:14:03;101731.06;;;10.14;100.00
71361;BME280;59166;48.908;1.870;2022-11-11T21:19:05;101733.09;;;10.18;100.00
71361;BME280;59166;48.908;1.870;2022-11-11T21:24:07;101735.56;;;10.20;100.00
71361;BME280;59166;48.908;1.870;2022-11-11T21:29:08;101743.25;;;10.23;100.00
71361;BME280;59166;48.908;1.870;2022-11-11T21:34:11;101739.28;;;10.25;100.00
71361;BME280;59166;48.908;1.870;2022-11-11T21:39:12;101741.34;;;10.23;100.00
71361;BME280;59166;48.908;1.870;2022-11-11T21:44:13;101734.31;;;10.22;100.00
71361;BME280;59166;48.908;1.870;2022-11-11T21:49:15;101729.81;;;10.16;100.00
71361;BME280;59166;48.908;1.870;2022-11-11T21:54:16;101715.94;;;10.13;100.00
71361;BME280;59166;48.908;1.870;2022-11-11T21:59:17;101714.66;;;10.15;100.00
71361;BME280;59166;48.908;1.870;2022-11-11T22:04:19;101708.03;;;10.11;100.00
71361;BME280;59166;48.908;1.870;2022-11-11T22:09:20;101709.91;;;10.11;100.00
71361;BME280;59166;48.908;1.870;2022-11-11T22:14:21;101704.88;;;10.14;100.00
71361;BME280;59166;48.908;1.870;2022-11-11T22:19:23;101693.25;;;10.14;100.00
71361;BME280;59166;48.908;1.870;2022-11-11T22:24:24;101687.88;;;10.14;100.00
71361;BME280;59166;48.908;1.870;2022-11-11T22:29:25;101673.09;;;10.16;100.00
71361;BME280;59166;48.908;1.870;2022-11-11T22:34:27;101684.94;;;10.15;100.00
71361;BME280;59166;48.908;1.870;2022-11-11T22:39:28;101686.44;;;10.11;100.00
71361;BME280;59166;48.908;1.870;2022-11-11T22:44:29;101681.09;;;10.05;100.00
71361;BME280;59166;48.908;1.870;2022-11-11T22:49:31;101677.44;;;9.99;100.00
71361;BME280;59166;48.908;1.870;2022-11-11T22:54:32;101677.72;;;9.91;100.00
71361;BME280;59166;48.908;1.870;2022-11-11T22:59:33;101684.00;;;9.85;100.00
71361;BME280;59166;48.908;1.870;2022-11-11T23:04:36;101692.38;;;9.77;100.00
71361;BME280;59166;48.908;1.870;2022-11-11T23:09:36;101679.78;;;9.71;100.00
71361;BME280;59166;48.908;1.870;2022-11-11T23:14:37;101681.56;;;9.77;100.00
71361;BME280;59166;48.908;1.870;2022-11-11T23:19:40;101691.03;;;9.86;100.00
71361;BME280;59166;48.908;1.870;2022-11-11T23:24:41;101688.91;;;9.95;100.00
71361;BME280;59166;48.908;1.870;2022-11-11T23:29:42;101694.38;;;10.06;100.00
71361;BME280;59166;48.908;1.870;2022-11-11T23:34:44;101697.97;;;10.00;100.00
71361;BME280;59166;48.908;1.870;2022-11-11T23:39:45;101690.63;;;9.89;100.00
71361;BME280;59166;48.908;1.870;2022-11-11T23:44:46;101683.25;;;9.78;100.00
71361;BME280;59166;48.908;1.870;2022-11-11T23:49:49;101685.31;;;9.76;100.00
71361;BME280;59166;48.908;1.870;2022-11-11T23:54:50;101675.78;;;9.73;100.00
71361;BME280;59166;48.908;1.870;2022-11-11T23:59:51;101676.63;;;9.74;100.00
